createdAt,value
2022-10-08T00:01:52.729Z,6.35
2022-10-08T00:04:26.289Z,6.45
2022-10-08T00:06:59.082Z,6.65
2022-10-08T00:09:31.873Z,7.22
2022-10-08T00:12:05.345Z,7.50
2022-10-08T00:14:39.845Z,7.25
2022-10-08T00:17:13.464Z,6.80
2022-10-08T00:19:46.510Z,7.20
2022-10-08T00:22:20.252Z,7.03
2022-10-08T00:24:53.853Z,6.90
2022-10-08T00:27:27.189Z,7.87
2022-10-08T00:29:59.973Z,7.67
2022-10-08T00:32:33.100Z,7.92
2022-10-08T00:35:07.247Z,8.03
2022-10-08T00:37:40.595Z,7.50
2022-10-08T00:40:14.551Z,8.23
2022-10-08T00:42:47.575Z,7.43
2022-10-08T00:45:21.267Z,8.95
2022-10-08T00:47:55.740Z,8.60
2022-10-08T00:50:37.751Z,9.38
2022-10-08T00:53:11.268Z,8.70
2022-10-08T00:58:23.690Z,10.32
2022-10-08T01:00:58.707Z,10.15
2022-10-08T01:03:32.076Z,10.30
2022-10-08T01:06:18.675Z,12.55
2022-10-08T01:09:23.600Z,9.45
2022-10-08T01:12:13.876Z,9.50
2022-10-08T01:15:00.621Z,10.30
2022-10-08T01:18:10.697Z,9.93
2022-10-08T01:21:05.207Z,10.78
2022-10-08T01:23:54.402Z,10.82
2022-10-08T01:26:54.522Z,12.75
2022-10-08T01:29:35.607Z,11.93
2022-10-08T01:32:29.128Z,10.65
2022-10-08T01:35:10.256Z,10.50
2022-10-08T01:37:44.943Z,10.48
2022-10-08T01:40:21.925Z,10.70
2022-10-08T01:42:55.155Z,11.50
2022-10-08T01:45:38.690Z,11.25
2022-10-08T01:51:05.469Z,15.43
2022-10-08T01:53:41.064Z,12.20
2022-10-08T01:56:18.661Z,10.48
2022-10-08T01:58:57.195Z,10.50
2022-10-08T02:02:02.102Z,10.53
2022-10-08T02:04:35.300Z,10.15
2022-10-08T02:07:12.381Z,10.50
2022-10-08T02:09:54.557Z,10.80
2022-10-08T02:12:28.276Z,9.65
2022-10-08T02:15:02.259Z,20.63
2022-10-08T02:18:16.384Z,10.80
2022-10-08T02:21:01.603Z,10.20
2022-10-08T02:23:41.554Z,9.20
2022-10-08T02:26:18.590Z,8.28
2022-10-08T02:29:06.395Z,9.40
2022-10-08T02:31:55.047Z,8.70
2022-10-08T02:34:33.850Z,7.85
2022-10-08T02:37:23.352Z,8.65
2022-10-08T02:40:06.507Z,9.70
2022-10-08T02:42:44.509Z,9.08
2022-10-08T02:45:27.926Z,9.83
2022-10-08T02:48:07.971Z,9.73
2022-10-08T02:50:43.357Z,13.15
2022-10-08T02:53:19.641Z,9.00
2022-10-08T02:56:08.678Z,8.65
2022-10-08T02:58:43.460Z,10.60
2022-10-08T03:01:42.355Z,9.13
2022-10-08T03:04:36.815Z,8.48
2022-10-08T03:07:11.767Z,8.60
2022-10-08T03:09:47.039Z,9.83
2022-10-08T03:12:20.443Z,10.30
2022-10-08T03:14:54.462Z,9.93
2022-10-08T03:17:39.841Z,9.33
2022-10-08T03:20:13.554Z,8.85
2022-10-08T03:22:48.370Z,9.33
2022-10-08T03:25:21.277Z,9.10
2022-10-08T03:27:54.367Z,9.30
2022-10-08T03:30:27.094Z,9.03
2022-10-08T03:33:00.648Z,10.15
2022-10-08T03:35:33.509Z,9.63
2022-10-08T03:38:06.272Z,10.45
2022-10-08T03:40:39.162Z,10.35
2022-10-08T03:43:12.528Z,9.83
2022-10-08T03:45:56.211Z,9.93
2022-10-08T03:48:29.472Z,9.63
2022-10-08T03:51:08.040Z,10.03
2022-10-08T03:53:43.530Z,10.43
2022-10-08T03:56:20.097Z,10.32
2022-10-08T03:58:58.697Z,9.60
2022-10-08T04:01:31.773Z,10.80
2022-10-08T04:04:04.890Z,10.97
2022-10-08T04:06:37.863Z,10.20
2022-10-08T04:09:12.769Z,9.65
2022-10-08T04:11:45.370Z,10.18
2022-10-08T04:14:18.015Z,11.57
2022-10-08T04:16:52.499Z,11.20
2022-10-08T04:19:25.174Z,9.48
2022-10-08T04:21:57.877Z,10.08
2022-10-08T04:24:30.694Z,9.73
2022-10-08T04:27:03.372Z,10.53
2022-10-08T04:29:36.646Z,10.43
2022-10-08T04:32:09.428Z,10.53
2022-10-08T04:34:42.685Z,10.50
2022-10-08T04:37:15.443Z,10.68
2022-10-08T04:39:49.821Z,10.32
2022-10-08T04:42:22.646Z,10.58
2022-10-08T04:44:55.761Z,10.38
2022-10-08T04:47:28.698Z,9.25
2022-10-08T04:50:03.334Z,10.05
2022-10-08T04:52:36.296Z,10.25
2022-10-08T04:55:10.516Z,9.55
2022-10-08T04:57:43.210Z,9.75
2022-10-08T05:00:19.140Z,10.70
2022-10-08T05:02:51.419Z,9.60
2022-10-08T05:05:24.900Z,10.40
2022-10-08T05:07:58.010Z,9.48
2022-10-08T05:10:32.020Z,9.35
2022-10-08T05:13:05.440Z,9.70
2022-10-08T05:15:38.233Z,9.87
2022-10-08T05:18:11.693Z,10.03
2022-10-08T05:20:44.693Z,11.03
2022-10-08T05:23:17.335Z,10.60
2022-10-08T05:25:50.681Z,10.93
2022-10-08T05:28:23.910Z,10.32
2022-10-08T05:31:01.679Z,10.68
2022-10-08T05:33:39.404Z,9.90
2022-10-08T05:36:24.768Z,9.35
2022-10-08T05:39:00.011Z,11.00
2022-10-08T05:41:37.046Z,10.30
2022-10-08T05:44:12.012Z,10.25
2022-10-08T05:46:45.930Z,11.33
2022-10-08T05:49:24.268Z,9.60
2022-10-08T05:51:57.004Z,9.38
2022-10-08T05:54:29.656Z,9.95
2022-10-08T05:57:02.408Z,9.10
2022-10-08T05:59:35.213Z,9.38
2022-10-08T06:02:10.224Z,9.47
2022-10-08T06:04:43.639Z,9.35
2022-10-08T06:07:16.862Z,8.85
2022-10-08T06:09:49.688Z,9.18
2022-10-08T06:12:22.575Z,9.38
2022-10-08T06:14:56.004Z,10.20
2022-10-08T06:20:02.169Z,10.50
2022-10-08T06:22:35.724Z,10.87
2022-10-08T06:25:09.823Z,9.93
2022-10-08T06:27:43.263Z,11.70
2022-10-08T06:30:16.342Z,12.85
2022-10-08T06:32:49.509Z,11.12
2022-10-08T06:35:22.634Z,11.35
2022-10-08T06:37:55.519Z,9.53
2022-10-08T06:40:29.314Z,11.57
2022-10-08T06:43:04.008Z,9.30
2022-10-08T06:45:45.105Z,8.43
2022-10-08T06:48:19.657Z,8.08
2022-10-08T06:51:05.458Z,8.00
2022-10-08T06:53:38.679Z,11.75
2022-10-08T06:56:18.525Z,8.93
2022-10-08T06:58:52.881Z,14.93
2022-10-08T07:04:02.539Z,16.12
2022-10-08T07:06:35.881Z,11.28
2022-10-08T07:09:10.660Z,9.83
2022-10-08T07:11:43.748Z,12.98
2022-10-08T07:14:17.013Z,8.93
2022-10-08T07:16:50.171Z,7.80
2022-10-08T07:19:23.168Z,9.78
2022-10-08T07:22:01.044Z,8.10
2022-10-08T07:24:31.147Z,8.60
2022-10-08T07:27:04.164Z,14.50
2022-10-08T07:29:37.500Z,16.87
2022-10-08T07:32:10.548Z,11.73
2022-10-08T07:34:44.345Z,10.88
2022-10-08T07:37:17.784Z,9.60
2022-10-08T07:39:50.410Z,8.10
2022-10-08T07:42:24.111Z,7.90
2022-10-08T07:44:57.255Z,7.90
2022-10-08T07:47:30.061Z,8.68
2022-10-08T07:50:04.729Z,8.90
2022-10-08T07:52:37.676Z,7.97
2022-10-08T07:55:11.230Z,10.63
2022-10-08T07:57:44.217Z,9.58
2022-10-08T08:00:17.226Z,9.53
2022-10-08T08:02:50.901Z,9.37
2022-10-08T08:05:23.985Z,7.75
2022-10-08T08:07:56.922Z,8.50
2022-10-08T08:10:30.026Z,7.42
2022-10-08T08:13:02.975Z,7.15
2022-10-08T08:15:36.018Z,6.78
2022-10-08T08:18:09.587Z,6.60
2022-10-08T08:20:43.112Z,6.35
2022-10-08T08:23:15.902Z,7.40
2022-10-08T08:25:50.725Z,7.83
2022-10-08T08:28:24.240Z,9.83
2022-10-08T08:31:14.601Z,11.33
2022-10-08T08:33:55.204Z,13.32
2022-10-08T08:36:33.975Z,17.30
2022-10-08T08:39:08.366Z,10.03
2022-10-08T08:42:11.097Z,15.70
2022-10-08T08:44:46.149Z,9.05
2022-10-08T08:47:40.109Z,12.50
2022-10-08T08:50:26.337Z,9.28
2022-10-08T08:53:00.110Z,9.43
2022-10-08T08:55:46.236Z,8.03
2022-10-08T08:58:36.320Z,6.55
2022-10-08T09:01:22.566Z,7.72
2022-10-08T09:04:00.275Z,8.23
2022-10-08T09:06:33.637Z,7.60
2022-10-08T09:09:35.057Z,6.12
2022-10-08T09:12:39.001Z,6.95
2022-10-08T09:15:34.690Z,7.37
2022-10-08T09:18:08.016Z,11.00
2022-10-08T09:20:41.283Z,8.23
2022-10-08T09:23:19.552Z,6.58
2022-10-08T09:26:08.839Z,15.50
2022-10-08T09:28:49.574Z,11.83
2022-10-08T09:31:42.397Z,12.60
2022-10-08T09:34:19.406Z,8.50
2022-10-08T09:36:57.320Z,8.80
2022-10-08T09:39:38.643Z,7.58
2022-10-08T09:42:20.612Z,6.95
2022-10-08T09:44:58.209Z,8.50
2022-10-08T09:47:34.402Z,5.60
2022-10-08T09:50:19.525Z,5.35
2022-10-08T09:52:54.315Z,5.83
2022-10-08T09:55:34.936Z,6.75
2022-10-08T09:58:12.649Z,6.08
2022-10-08T10:00:45.873Z,5.60
2022-10-08T10:03:19.684Z,5.87
2022-10-08T10:05:55.255Z,5.00
2022-10-08T10:08:46.953Z,5.12
2022-10-08T10:11:55.207Z,6.90
2022-10-08T10:14:46.689Z,5.47
2022-10-08T10:17:42.919Z,5.70
2022-10-08T10:20:43.222Z,5.72
2022-10-08T10:23:26.549Z,7.03
2022-10-08T10:26:12.775Z,7.55
2022-10-08T10:28:49.984Z,7.22
2022-10-08T10:31:38.295Z,5.03
2022-10-08T10:34:34.936Z,6.45
2022-10-08T10:37:25.953Z,5.72
2022-10-08T10:40:20.644Z,4.78
2022-10-08T10:43:31.066Z,6.17
2022-10-08T10:46:14.505Z,9.10
2022-10-08T10:48:48.349Z,5.90
2022-10-08T10:51:34.956Z,9.43
2022-10-08T10:54:33.145Z,12.37
2022-10-08T10:57:22.267Z,15.50
2022-10-08T11:00:25.309Z,20.30
2022-10-08T11:03:05.919Z,23.27
2022-10-08T11:05:39.689Z,22.17
2022-10-08T11:08:41.626Z,23.65
2022-10-08T11:11:32.343Z,15.28
2022-10-08T11:14:35.578Z,11.48
2022-10-08T11:17:31.115Z,10.10
2022-10-08T11:20:14.929Z,11.30
2022-10-08T11:23:16.687Z,9.37
2022-10-08T11:26:20.766Z,8.35
2022-10-08T11:28:47.363Z,10.80
2022-10-08T11:31:29.636Z,9.13
2022-10-08T11:34:04.092Z,9.43
2022-10-08T11:36:41.839Z,7.90
2022-10-08T11:39:45.171Z,5.37
2022-10-08T11:42:52.775Z,6.35
2022-10-08T11:45:36.887Z,6.45
2022-10-08T11:48:34.354Z,5.20
2022-10-08T11:51:27.534Z,5.05
2022-10-08T11:54:14.050Z,6.08
2022-10-08T11:56:50.320Z,6.97
2022-10-08T11:59:39.943Z,5.60
2022-10-08T12:02:36.873Z,8.00
2022-10-08T12:05:26.391Z,6.22
2022-10-08T12:08:06.649Z,4.62
2022-10-08T12:10:42.010Z,6.10
2022-10-08T12:13:29.022Z,5.45
2022-10-08T12:16:04.541Z,5.10
2022-10-08T12:18:45.629Z,5.50
2022-10-08T12:21:25.730Z,4.67
2022-10-08T12:23:58.987Z,5.60
2022-10-08T12:26:32.022Z,5.30
2022-10-08T12:29:05.001Z,5.12
2022-10-08T12:31:40.056Z,6.55
2022-10-08T12:34:22.568Z,5.83
2022-10-08T12:37:01.969Z,5.62
2022-10-08T12:39:48.282Z,5.08
2022-10-08T12:42:29.280Z,5.42
2022-10-08T12:45:27.818Z,4.95
2022-10-08T12:48:25.415Z,5.40
2022-10-08T12:51:25.534Z,7.78
2022-10-08T12:53:58.571Z,5.03
2022-10-08T12:56:32.419Z,5.23
2022-10-08T12:59:06.570Z,5.25
2022-10-08T13:01:41.825Z,5.80
2022-10-08T13:04:33.331Z,6.85
2022-10-08T13:07:10.801Z,8.15
2022-10-08T13:09:46.088Z,6.80
2022-10-08T13:12:18.921Z,6.05
2022-10-08T13:15:06.660Z,6.20
2022-10-08T13:17:40.436Z,5.50
2022-10-08T13:20:22.144Z,4.92
2022-10-08T13:22:55.001Z,5.62
2022-10-08T13:25:41.088Z,5.83
2022-10-08T13:28:41.705Z,4.80
2022-10-08T13:33:32.342Z,5.75
2022-10-08T13:36:05.260Z,7.28
2022-10-08T13:38:38.688Z,7.65
2022-10-08T13:41:13.339Z,7.03
2022-10-08T13:43:49.042Z,8.30
2022-10-08T13:46:22.000Z,7.85
2022-10-08T13:48:55.159Z,6.87
2022-10-08T13:51:27.980Z,6.75
2022-10-08T13:54:01.650Z,6.78
2022-10-08T13:56:35.310Z,7.85
2022-10-08T13:59:09.764Z,8.33
2022-10-08T14:04:15.803Z,6.92
2022-10-08T14:06:52.407Z,8.88
2022-10-08T14:09:28.782Z,7.53
2022-10-08T14:12:04.883Z,9.20
2022-10-08T14:14:39.074Z,9.50
2022-10-08T14:17:12.140Z,9.80
2022-10-08T14:19:45.649Z,7.05
2022-10-08T14:22:19.340Z,7.80
2022-10-08T14:24:53.023Z,6.63
2022-10-08T14:27:25.795Z,7.75
2022-10-08T14:29:58.875Z,8.10
2022-10-08T14:32:31.705Z,8.23
2022-10-08T14:35:06.531Z,8.58
2022-10-08T14:37:39.967Z,8.18
2022-10-08T14:40:17.878Z,6.87
2022-10-08T14:42:51.648Z,7.33
2022-10-08T14:45:25.083Z,6.53
2022-10-08T14:47:58.107Z,8.30
2022-10-08T14:50:31.514Z,11.48
2022-10-08T14:53:04.702Z,11.78
2022-10-08T14:56:00.596Z,8.50
2022-10-08T14:58:13.032Z,8.48
2022-10-08T15:00:46.197Z,8.33
2022-10-08T15:03:19.369Z,9.83
2022-10-08T15:05:54.012Z,13.05
2022-10-08T15:08:29.064Z,16.15
2022-10-08T15:11:04.490Z,16.97
2022-10-08T15:13:37.428Z,12.78
2022-10-08T15:16:15.065Z,9.95
2022-10-08T15:18:48.288Z,8.03
2022-10-08T15:21:21.720Z,7.72
2022-10-08T15:23:59.329Z,6.92
2022-10-08T15:26:32.600Z,7.50
2022-10-08T15:29:05.738Z,7.00
2022-10-08T15:31:39.098Z,7.53
2022-10-08T15:34:18.121Z,9.25
2022-10-08T15:36:52.484Z,9.73
2022-10-08T15:39:25.467Z,9.25
2022-10-08T15:41:59.967Z,10.68
2022-10-08T15:44:33.745Z,12.60
2022-10-08T15:47:10.353Z,12.98
2022-10-08T15:49:47.172Z,13.38
2022-10-08T15:52:23.468Z,13.05
2022-10-08T15:54:56.411Z,15.90
2022-10-08T15:57:29.825Z,15.50
2022-10-08T16:00:03.303Z,16.35
2022-10-08T16:02:37.874Z,16.48
2022-10-08T16:05:11.322Z,14.93
2022-10-08T16:07:46.157Z,14.38
2022-10-08T16:10:19.171Z,15.45
2022-10-08T16:12:53.823Z,16.30
2022-10-08T16:15:26.730Z,15.78
2022-10-08T16:18:01.485Z,12.23
2022-10-08T16:20:36.092Z,10.88
2022-10-08T16:23:09.816Z,10.70
2022-10-08T16:25:45.610Z,10.72
2022-10-08T16:28:19.137Z,10.03
2022-10-08T16:30:52.161Z,10.48
2022-10-08T16:33:26.395Z,11.95
2022-10-08T16:36:03.638Z,12.18
2022-10-08T16:38:41.916Z,12.47
2022-10-08T16:41:27.700Z,11.70
2022-10-08T16:44:13.360Z,10.55
2022-10-08T16:46:50.879Z,11.25
2022-10-08T16:49:27.812Z,11.18
2022-10-08T16:52:04.970Z,11.45
2022-10-08T16:54:37.676Z,10.43
2022-10-08T16:57:10.802Z,11.28
2022-10-08T16:59:44.138Z,13.67
2022-10-08T17:02:17.494Z,13.88
2022-10-08T17:04:51.275Z,12.33
2022-10-08T17:07:24.287Z,12.25
2022-10-08T17:09:57.757Z,11.10
2022-10-08T17:12:31.165Z,12.63
2022-10-08T17:15:04.624Z,12.15
2022-10-08T17:17:39.017Z,13.22
2022-10-08T17:20:12.182Z,13.03
2022-10-08T17:22:45.185Z,14.85
2022-10-08T17:25:19.427Z,11.78
2022-10-08T17:27:52.363Z,11.73
2022-10-08T17:30:25.705Z,11.83
2022-10-08T17:32:58.834Z,10.90
2022-10-08T17:35:32.241Z,11.30
2022-10-08T17:38:05.156Z,10.88
2022-10-08T17:40:38.268Z,11.15
2022-10-08T17:43:12.051Z,11.00
2022-10-08T17:45:45.189Z,10.48
2022-10-08T17:48:17.890Z,10.20
2022-10-08T17:50:51.169Z,10.85
2022-10-08T17:53:24.737Z,10.32
2022-10-08T17:56:06.187Z,11.00
2022-10-08T17:58:39.770Z,10.80
2022-10-08T18:01:16.677Z,10.23
2022-10-08T18:03:56.341Z,9.40
2022-10-08T18:06:30.753Z,10.55
2022-10-08T18:09:07.884Z,11.97
2022-10-08T18:11:44.979Z,11.88
2022-10-08T18:14:18.020Z,11.95
2022-10-08T18:16:51.274Z,10.93
2022-10-08T18:19:24.563Z,11.05
2022-10-08T18:21:59.157Z,10.60
2022-10-08T18:24:33.186Z,10.70
2022-10-08T18:27:06.365Z,10.40
2022-10-08T18:29:39.900Z,10.23
2022-10-08T18:32:14.695Z,10.40
2022-10-08T18:34:47.462Z,13.40
2022-10-08T18:37:21.014Z,12.28
2022-10-08T18:39:54.064Z,10.70
2022-10-08T18:42:27.376Z,10.00
2022-10-08T18:45:00.325Z,10.93
2022-10-08T18:47:34.329Z,10.08
2022-10-08T18:50:09.140Z,9.45
2022-10-08T18:52:41.919Z,9.53
2022-10-08T18:55:14.928Z,9.85
2022-10-08T18:57:47.766Z,9.50
2022-10-08T19:00:20.861Z,8.28
2022-10-08T19:02:56.604Z,9.08
2022-10-08T19:05:29.600Z,9.35
2022-10-08T19:08:02.454Z,9.70
2022-10-08T19:10:35.416Z,9.78
2022-10-08T19:13:09.068Z,9.43
2022-10-08T19:15:42.699Z,9.48
2022-10-08T19:18:15.564Z,9.83
2022-10-08T19:20:48.452Z,9.25
2022-10-08T19:23:21.223Z,9.63
2022-10-08T19:25:57.107Z,8.80
2022-10-08T19:28:30.305Z,8.85
2022-10-08T19:31:03.296Z,9.50
2022-10-08T19:33:36.986Z,8.95
2022-10-08T19:36:10.869Z,9.73
2022-10-08T19:38:43.962Z,8.68
2022-10-08T19:41:16.858Z,8.78
2022-10-08T19:43:50.172Z,8.08
2022-10-08T19:46:24.221Z,9.25
2022-10-08T19:49:02.900Z,8.25
2022-10-08T19:51:37.185Z,8.58
2022-10-08T19:54:09.962Z,8.95
2022-10-08T19:56:43.455Z,8.23
2022-10-08T20:01:50.441Z,7.65
2022-10-08T20:04:24.291Z,7.67
2022-10-08T20:07:00.083Z,8.25
2022-10-08T20:09:34.759Z,8.08
2022-10-08T20:12:08.420Z,8.03
2022-10-08T20:14:41.866Z,8.83
2022-10-08T20:17:15.917Z,8.18
2022-10-08T20:19:49.451Z,8.53
2022-10-08T20:22:22.496Z,8.10
2022-10-08T20:24:55.473Z,8.20
2022-10-08T20:27:28.324Z,9.48
2022-10-08T20:30:01.168Z,8.85
2022-10-08T20:32:34.387Z,8.55
2022-10-08T20:35:09.176Z,9.53
2022-10-08T20:37:41.989Z,9.05
2022-10-08T20:40:16.630Z,8.73
2022-10-08T20:42:50.938Z,8.15
2022-10-08T20:45:24.025Z,9.13
2022-10-08T20:47:57.843Z,9.15
2022-10-08T20:50:30.625Z,9.53
2022-10-08T20:53:03.412Z,9.55
2022-10-08T20:55:39.897Z,9.38
2022-10-08T20:58:12.643Z,9.53
2022-10-08T21:00:45.940Z,9.78
2022-10-08T21:03:18.965Z,9.58
2022-10-08T21:05:53.680Z,9.45
2022-10-08T21:08:27.498Z,8.85
2022-10-08T21:11:04.626Z,9.68
2022-10-08T21:13:38.270Z,8.63
2022-10-08T21:18:59.877Z,8.68
2022-10-08T21:21:34.488Z,8.13
2022-10-08T21:24:08.269Z,7.90
2022-10-08T21:26:43.224Z,8.50
2022-10-08T21:29:16.647Z,8.40
2022-10-08T21:31:49.624Z,8.88
2022-10-08T21:34:22.696Z,8.58
2022-10-08T21:36:55.540Z,8.80
2022-10-08T21:39:28.390Z,8.55
2022-10-08T21:42:01.246Z,8.03
2022-10-08T21:44:36.325Z,8.60
2022-10-08T21:47:09.114Z,8.65
2022-10-08T21:49:41.866Z,7.78
2022-10-08T21:52:14.597Z,8.20
2022-10-08T21:54:47.376Z,8.33
2022-10-08T21:57:20.272Z,8.55
2022-10-08T21:59:52.984Z,8.15
2022-10-08T22:02:25.919Z,7.92
2022-10-08T22:04:58.934Z,8.28
2022-10-08T22:07:33.538Z,8.63
2022-10-08T22:10:07.369Z,8.68
2022-10-08T22:12:41.036Z,8.48
2022-10-08T22:15:14.703Z,8.48
2022-10-08T22:17:47.456Z,8.65
2022-10-08T22:20:20.860Z,7.58
2022-10-08T22:22:53.817Z,9.63
2022-10-08T22:25:27.305Z,8.28
2022-10-08T22:28:00.171Z,8.13
2022-10-08T22:30:38.956Z,9.05
2022-10-08T22:33:11.616Z,7.60
2022-10-08T22:35:45.632Z,7.78
2022-10-08T22:38:18.494Z,7.90
2022-10-08T22:40:51.540Z,7.67
2022-10-08T22:43:24.393Z,7.83
2022-10-08T22:45:57.522Z,7.40
2022-10-08T22:48:30.960Z,7.92
2022-10-08T22:51:09.939Z,7.73
2022-10-08T22:53:43.330Z,6.47
2022-10-08T22:56:22.688Z,7.05
2022-10-08T22:58:56.191Z,6.53
2022-10-08T23:01:30.542Z,7.30
2022-10-08T23:06:36.212Z,7.80
2022-10-08T23:09:13.054Z,7.55
2022-10-08T23:11:46.848Z,8.28
2022-10-08T23:14:19.716Z,7.78
2022-10-08T23:16:52.654Z,7.50
2022-10-08T23:19:25.614Z,6.97
2022-10-08T23:21:59.203Z,7.90
2022-10-08T23:24:31.978Z,7.70
2022-10-08T23:27:08.844Z,7.67
2022-10-08T23:29:39.341Z,7.33
2022-10-08T23:32:12.851Z,7.07
2022-10-08T23:34:46.938Z,7.30
2022-10-08T23:37:19.793Z,7.08
2022-10-08T23:39:57.711Z,6.65
2022-10-08T23:42:27.177Z,7.12
2022-10-08T23:45:00.032Z,6.60
2022-10-08T23:47:33.218Z,7.45
2022-10-08T23:50:11.078Z,6.95
2022-10-08T23:52:44.160Z,7.47
2022-10-08T23:55:17.397Z,7.37
2022-10-08T23:57:50.222Z,6.55
